| time (UTC) | temp F | wind direction | speed MPH | gust MPH | rain 1hr in | rain 24hr in | rain mn in | humidity % | barometer mb |
| 20260906180121 | 95 | 317 | 0.0 | 0.0 | 0.00 | 0.00 | 0.00 | 50 | |
| 20260906175619 | 95 | 316 | 0.0 | 5.0 | 0.00 | 0.00 | 0.00 | 50 | |
| 20260906175115 | 94 | 325 | 0.0 | 1.0 | 0.00 | 0.00 | 0.00 | 53 | |
| 20260906174613 | 94 | 318 | 0.0 | 1.0 | 0.00 | 0.00 | 0.00 | 53 | |
| 20260906174108 | 94 | 334 | 1.0 | 3.0 | 0.00 | 0.00 | 0.00 | 52 | |
| 20260906173603 | 93 | 321 | 0.0 | 1.0 | 0.00 | 0.00 | 0.00 | 53 | |
| 20260906173058 | 94 | 320 | 1.0 | 1.0 | 0.00 | 0.00 | 0.00 | 51 | |
| 20260906172552 | 94 | 327 | 1.0 | 3.0 | 0.00 | 0.00 | 0.00 | 50 | |
| 20260906172048 | 94 | 320 | 0.0 | 1.0 | 0.00 | 0.00 | 0.00 | 54 | |
| 20260906171547 | 93 | 328 | 1.0 | 2.0 | 0.00 | 0.00 | 0.00 | 52 | |
| 20260906171043 | 93 | 320 | 0.0 | 2.0 | 0.00 | 0.00 | 0.00 | 52 | |
| 20260906170539 | 93 | 338 | 3.0 | 5.0 | 0.00 | 0.00 | 0.00 | 52 | |
| 20260906170037 | 93 | 328 | 2.0 | 2.0 | 0.00 | 0.00 | 0.00 | 53 | |
| 20260906165535 | 93 | 328 | 1.0 | 2.0 | 0.00 | 0.00 | 0.00 | 54 | |
| 20260906165029 | 93 | 309 | 0.0 | 1.0 | 0.00 | 0.00 | 0.00 | 53 | |
| 20260906164528 | 93 | 331 | 1.0 | 2.0 | 0.00 | 0.00 | 0.00 | 53 | |
| 20260906164025 | 93 | 343 | 2.0 | 2.0 | 0.00 | 0.00 | 0.00 | 54 | |
| 20260906163520 | 93 | 326 | 2.0 | 2.0 | 0.00 | 0.00 | 0.00 | 53 | |
| 20260906163016 | 93 | 328 | 2.0 | 2.0 | 0.00 | 0.00 | 0.00 | 55 | |
| 20260906162512 | 92 | 328 | 1.0 | 2.0 | 0.00 | 0.00 | 0.00 | 58 | |
| 20260906162008 | 91 | 327 | 1.0 | 1.0 | 0.00 | 0.00 | 0.00 | 58 | |
| 20260906161502 | 91 | 322 | 1.0 | 1.0 | 0.00 | 0.00 | 0.00 | 57 | |
| 20260906161001 | 92 | 323 | 1.0 | 3.0 | 0.00 | 0.00 | 0.00 | 57 | |
| 20260906160455 | 92 | 331 | 1.0 | 3.0 | 0.00 | 0.00 | 0.00 | 56 | |
| 20260906155953 | 91 | 331 | 2.0 | 2.0 | 0.00 | 0.00 | 0.00 | 58 | |
| 20260906155451 | 91 | 333 | 2.0 | 2.0 | 0.00 | 0.00 | 0.00 | 58 | |
| 20260906154948 | 91 | 324 | 1.0 | 1.0 | 0.00 | 0.00 | 0.00 | 60 | |
| 20260906154443 | 90 | 333 | 3.0 | 5.0 | 0.00 | 0.00 | 0.00 | 60 | |
| 20260906153941 | 90 | 351 | 2.0 | 2.0 | 0.00 | 0.00 | 0.00 | 60 | |
| 20260906153440 | 89 | 345 | 3.0 | 5.0 | 0.00 | 0.00 | 0.00 | 60 | |
| 20260906152935 | 89 | 328 | 1.0 | 3.0 | 0.00 | 0.00 | 0.00 | 61 | |
| 20260906152430 | 88 | 336 | 1.0 | 2.0 | 0.00 | 0.00 | 0.00 | 61 | |
| 20260906151929 | 88 | 3 | 2.0 | 5.0 | 0.00 | 0.00 | 0.00 | 61 | |
| 20260906151425 | 88 | 349 | 3.0 | 5.0 | 0.00 | 0.00 | 0.00 | 62 | |
| 20260906150920 | 88 | 322 | 1.0 | 3.0 | 0.00 | 0.00 | 0.00 | 63 | |
| 20260906150415 | 87 | 321 | 1.0 | 1.0 | 0.00 | 0.00 | 0.00 | 64 | |
| 20260906145914 | 87 | 328 | 2.0 | 3.0 | 0.00 | 0.00 | 0.00 | 64 | |
| 20260906145408 | 87 | 325 | 2.0 | 2.0 | 0.00 | 0.00 | 0.00 | 64 | |
| 20260906144903 | 86 | 326 | 1.0 | 2.0 | 0.00 | 0.00 | 0.00 | 65 | |
| 20260906144358 | 86 | 332 | 1.0 | 2.0 | 0.00 | 0.00 | 0.00 | 64 | |
| 20260906143853 | 86 | 329 | 2.0 | 3.0 | 0.00 | 0.00 | 0.00 | 64 | |
| 20260906143348 | 85 | 331 | 2.0 | 3.0 | 0.00 | 0.00 | 0.00 | 64 | |
| 20260906142844 | 85 | 330 | 2.0 | 2.0 | 0.00 | 0.00 | 0.00 | 65 | |
| 20260906142339 | 84 | 334 | 2.0 | 3.0 | 0.00 | 0.00 | 0.00 | 65 | |
| 20260906141838 | 85 | 330 | 2.0 | 3.0 | 0.00 | 0.00 | 0.00 | 65 | |
| 20260906141333 | 85 | 325 | 0.0 | 2.0 | 0.00 | 0.00 | 0.00 | 66 | |
| 20260906140832 | 85 | 328 | 2.0 | 3.0 | 0.00 | 0.00 | 0.00 | 65 | |
| 20260906140327 | 85 | 345 | 3.0 | 5.0 | 0.00 | 0.00 | 0.00 | 64 | |
| 20260906135825 | 84 | 345 | 1.0 | 3.0 | 0.00 | 0.00 | 0.00 | 65 | |
| 20260906135320 | 84 | 330 | 2.0 | 2.0 | 0.00 | 0.00 | 0.00 | 66 | |
| 20260906134815 | 83 | 329 | 3.0 | 3.0 | 0.00 | 0.00 | 0.00 | 66 | |
| 20260906134310 | 83 | 329 | 1.0 | 3.0 | 0.00 | 0.00 | 0.00 | 66 | |
| 20260906133806 | 84 | 330 | 2.0 | 5.0 | 0.00 | 0.00 | 0.00 | 65 | |
| 20260906133301 | 82 | 333 | 1.0 | 2.0 | 0.00 | 0.00 | 0.00 | 67 | |
| 20260906132757 | 82 | 334 | 2.0 | 2.0 | 0.00 | 0.00 | 0.00 | 67 | |
| 20260906132252 | 83 | 329 | 1.0 | 2.0 | 0.00 | 0.00 | 0.00 | 67 | |
| 20260906131748 | 82 | 323 | 0.0 | 1.0 | 0.00 | 0.00 | 0.00 | 68 | |
| 20260906131248 | 81 | 322 | 0.0 | 1.0 | 0.00 | 0.00 | 0.00 | 69 | |
| 20260906130743 | 81 | 317 | 0.0 | 2.0 | 0.00 | 0.00 | 0.00 | 69 | |
| 20260906130238 | 80 | 325 | 1.0 | 2.0 | 0.00 | 0.00 | 0.00 | 69 | |
| 20260906125737 | 80 | 328 | 1.0 | 2.0 | 0.00 | 0.00 | 0.00 | 70 | |
| 20260906125235 | 80 | 329 | 1.0 | 2.0 | 0.00 | 0.00 | 0.00 | 70 | |
| 20260906124730 | 80 | 324 | 1.0 | 1.0 | 0.00 | 0.00 | 0.00 | 70 | |
| 20260906124226 | 80 | 326 | 1.0 | 2.0 | 0.00 | 0.00 | 0.00 | 70 | |
| 20260906123724 | 79 | 332 | 1.0 | 1.0 | 0.00 | 0.00 | 0.00 | 71 | |
| 20260906123220 | 79 | 327 | 1.0 | 2.0 | 0.00 | 0.00 | 0.00 | 71 | |
| 20260906122719 | 79 | 326 | 1.0 | 1.0 | 0.00 | 0.00 | 0.00 | 73 | |
| 20260906122215 | 79 | 326 | 1.0 | 1.0 | 0.00 | 0.00 | 0.00 | 72 | |
| 20260906121711 | 78 | 330 | 0.0 | 1.0 | 0.00 | 0.00 | 0.00 | 72 | |
| 20260906121207 | 78 | 326 | 0.0 | 1.0 | 0.00 | 0.00 | 0.00 | 72 | |
| 20260906120703 | 78 | 322 | 1.0 | 2.0 | 0.00 | 0.00 | 0.00 | 72 | |
| 20260906120159 | 78 | 326 | 0.0 | 1.0 | 0.00 | 0.00 | 0.00 | 73 | |
| 20260906115654 | 78 | 323 | 1.0 | 1.0 | 0.00 | 0.00 | 0.00 | 73 | |
| 20260906115149 | 79 | 324 | 1.0 | 1.0 | 0.00 | 0.00 | 0.00 | 72 | |
| 20260906114648 | 79 | 326 | 1.0 | 2.0 | 0.00 | 0.00 | 0.00 | 72 | |
| 20260906114143 | 79 | 328 | 1.0 | 1.0 | 0.00 | 0.00 | 0.00 | 72 | |
| 20260906113638 | 79 | 323 | 1.0 | 2.0 | 0.00 | 0.00 | 0.00 | 72 | |
| 20260906113138 | 79 | 331 | 0.0 | 2.0 | 0.00 | 0.00 | 0.00 | 72 | |
| 20260906112637 | 79 | 328 | 1.0 | 2.0 | 0.00 | 0.00 | 0.00 | 71 | |
| 20260906112135 | 78 | 336 | 1.0 | 2.0 | 0.00 | 0.00 | 0.00 | 72 | |
| 20260906111634 | 79 | 325 | 1.0 | 1.0 | 0.00 | 0.00 | 0.00 | 72 | |
| 20260906111129 | 78 | 326 | 1.0 | 1.0 | 0.00 | 0.00 | 0.00 | 72 | |
| 20260906110623 | 79 | 324 | 0.0 | 1.0 | 0.00 | 0.00 | 0.00 | 72 | |
| 20260906110118 | 79 | 322 | 1.0 | 1.0 | 0.00 | 0.00 | 0.00 | 72 | |
| 20260906105612 | 78 | 324 | 1.0 | 1.0 | 0.00 | 0.00 | 0.00 | 72 | |
| 20260906105109 | 78 | 335 | 1.0 | 1.0 | 0.00 | 0.00 | 0.00 | 73 | |
| 20260906104608 | 78 | 324 | 0.0 | 0.0 | 0.00 | 0.00 | 0.00 | 74 | |
| 20260906104102 | 77 | 326 | 0.0 | 0.0 | 0.00 | 0.00 | 0.00 | 75 | |
| 20260906103600 | 77 | 323 | 1.0 | 1.0 | 0.00 | 0.00 | 0.00 | 75 | |
| 20260906103056 | 77 | 324 | 0.0 | 0.0 | 0.00 | 0.00 | 0.00 | 76 | |
| 20260906102555 | 77 | 324 | 0.0 | 1.0 | 0.00 | 0.00 | 0.00 | 75 | |
| 20260906102051 | 77 | 324 | 0.0 | 0.0 | 0.00 | 0.00 | 0.00 | 75 | |
| 20260906101545 | 78 | 324 | 0.0 | 0.0 | 0.00 | 0.00 | 0.00 | 75 | |
| 20260906101039 | 78 | 324 | 0.0 | 0.0 | 0.00 | 0.00 | 0.00 | 74 | |
| 20260906100536 | 78 | 326 | 1.0 | 1.0 | 0.00 | 0.00 | 0.00 | 73 | |
| 20260906100036 | 78 | 325 | 0.0 | 1.0 | 0.00 | 0.00 | 0.00 | 74 | |
| 20260906095530 | 78 | 324 | 0.0 | 1.0 | 0.00 | 0.00 | 0.00 | 74 | |
| 20260906095026 | 78 | 324 | 0.0 | 1.0 | 0.00 | 0.00 | 0.00 | 73 | |
| 20260906094525 | 79 | 324 | 0.0 | 1.0 | 0.00 | 0.00 | 0.00 | 74 | |
| 20260906094021 | 78 | 324 | 0.0 | 1.0 | 0.00 | 0.00 | 0.00 | 73 | |
| 20260906093517 | 78 | 325 | 0.0 | 1.0 | 0.00 | 0.00 | 0.00 | 73 | |
| 20260906093016 | 78 | 323 | 0.0 | 0.0 | 0.00 | 0.00 | 0.00 | 74 | |
| 20260906092511 | 79 | 325 | 0.0 | 1.0 | 0.00 | 0.00 | 0.00 | 72 | |
| 20260906092007 | 79 | 331 | 1.0 | 1.0 | 0.00 | 0.00 | 0.00 | 72 | |
| 20260906091502 | 78 | 328 | 1.0 | 1.0 | 0.00 | 0.00 | 0.00 | 73 | |
| 20260906090959 | 77 | 324 | 0.0 | 0.0 | 0.00 | 0.00 | 0.00 | 76 | |
| 20260906090453 | 77 | 324 | 0.0 | 0.0 | 0.00 | 0.00 | 0.00 | 76 | |
| 20260906085953 | 77 | 324 | 0.0 | 0.0 | 0.00 | 0.00 | 0.00 | 76 | |
| 20260906085452 | 77 | 324 | 0.0 | 0.0 | 0.00 | 0.00 | 0.00 | 77 | |
| 20260906084951 | 77 | 324 | 0.0 | 0.0 | 0.00 | 0.00 | 0.00 | 77 | |
| 20260906084447 | 77 | 324 | 0.0 | 0.0 | 0.00 | 0.00 | 0.00 | 77 | |
| 20260906083945 | 77 | 324 | 0.0 | 0.0 | 0.00 | 0.00 | 0.00 | 78 | |
| 20260906083442 | 78 | 324 | 0.0 | 0.0 | 0.00 | 0.00 | 0.00 | 77 | |
| 20260906082941 | 78 | 324 | 0.0 | 0.0 | 0.00 | 0.00 | 0.00 | 76 | |
| 20260906082436 | 78 | 324 | 0.0 | 0.0 | 0.00 | 0.00 | 0.00 | 74 | |
| 20260906081931 | 78 | 324 | 0.0 | 0.0 | 0.00 | 0.00 | 0.00 | 74 | |
| 20260906081427 | 78 | 324 | 0.0 | 0.0 | 0.00 | 0.00 | 0.00 | 74 | |
| 20260906080923 | 78 | 324 | 0.0 | 0.0 | 0.00 | 0.00 | 0.00 | 74 | |
| 20260906080420 | 78 | 324 | 0.0 | 0.0 | 0.00 | 0.00 | 0.00 | 74 | |
| 20260906075919 | 78 | 324 | 0.0 | 0.0 | 0.00 | 0.00 | 0.00 | 74 | |
| 20260906075414 | 78 | 324 | 0.0 | 0.0 | 0.00 | 0.00 | 0.00 | 73 | |
| 20260906074909 | 78 | 324 | 0.0 | 0.0 | 0.00 | 0.00 | 0.00 | 73 | |
| 20260906074409 | 78 | 324 | 0.0 | 0.0 | 0.00 | 0.00 | 0.00 | 73 | |
| 20260906073908 | 79 | 324 | 0.0 | 0.0 | 0.00 | 0.00 | 0.00 | 73 | |
| 20260906073403 | 79 | 324 | 0.0 | 0.0 | 0.00 | 0.00 | 0.00 | 72 | |
| 20260906072859 | 79 | 324 | 0.0 | 0.0 | 0.00 | 0.00 | 0.00 | 72 | |
| 20260906072354 | 79 | 324 | 0.0 | 0.0 | 0.00 | 0.00 | 0.00 | 72 | |
| 20260906071850 | 80 | 324 | 0.0 | 0.0 | 0.00 | 0.00 | 0.00 | 71 | |
| 20260906071345 | 80 | 324 | 0.0 | 0.0 | 0.00 | 0.00 | 0.00 | 70 | |
| 20260906070842 | 80 | 324 | 0.0 | 0.0 | 0.00 | 0.00 | 0.00 | 71 | |
| 20260906070337 | 80 | 324 | 0.0 | 0.0 | 0.00 | 0.00 | 0.00 | 71 | |
| 20260906065833 | 80 | 324 | 0.0 | 0.0 | 0.00 | 0.00 | 0.00 | 70 | |
| 20260906065327 | 80 | 324 | 0.0 | 0.0 | 0.00 | 0.00 | 0.00 | 70 | |
| 20260906064823 | 81 | 324 | 0.0 | 0.0 | 0.00 | 0.00 | 0.00 | 69 | |
| 20260906064319 | 81 | 324 | 0.0 | 0.0 | 0.00 | 0.00 | 0.00 | 68 | |
| 20260906063819 | 82 | 324 | 0.0 | 0.0 | 0.00 | 0.00 | 0.00 | 67 | |
| 20260906063314 | 82 | 324 | 0.0 | 0.0 | 0.00 | 0.00 | 0.00 | 67 | |
| 20260906062809 | 83 | 324 | 0.0 | 0.0 | 0.00 | 0.00 | 0.00 | 66 | |
| 20260906062308 | 84 | 325 | 0.0 | 0.0 | 0.00 | 0.00 | 0.00 | 64 | |
| 20260906061804 | 84 | 324 | 0.0 | 1.0 | 0.00 | 0.00 | 0.00 | 63 | |
| 20260906061301 | 84 | 324 | 0.0 | 1.0 | 0.00 | 0.00 | 0.00 | 63 | |
| 20260906060755 | 84 | 332 | 1.0 | 1.0 | 0.00 | 0.00 | 0.00 | 63 | |
| 20260906060253 | 85 | 327 | 1.0 | 2.0 | 0.00 | 0.00 | 0.00 | 62 | |
| 20260906055748 | 85 | 329 | 1.0 | 1.0 | 0.00 | 0.00 | 0.00 | 62 | |
| 20260906055243 | 85 | 326 | 1.0 | 2.0 | 0.00 | 0.00 | 0.00 | 62 | |
| 20260906054739 | 85 | 327 | 1.0 | 2.0 | 0.00 | 0.00 | 0.00 | 62 | |
| 20260906054234 | 85 | 326 | 1.0 | 1.0 | 0.00 | 0.00 | 0.00 | 62 | |
| 20260906053731 | 85 | 335 | 1.0 | 2.0 | 0.00 | 0.00 | 0.00 | 62 | |
| 20260906053226 | 85 | 323 | 1.0 | 1.0 | 0.00 | 0.00 | 0.00 | 62 | |
| 20260906052721 | 85 | 335 | 1.0 | 1.0 | 0.00 | 0.00 | 0.00 | 62 | |
| 20260906052217 | 85 | 325 | 1.0 | 1.0 | 0.00 | 0.00 | 0.00 | 62 | |
| 20260906051714 | 85 | 328 | 1.0 | 2.0 | 0.00 | 0.00 | 0.00 | 62 | |
| 20260906051213 | 86 | 329 | 1.0 | 2.0 | 0.00 | 0.00 | 0.00 | 62 | |
| 20260906050709 | 86 | 332 | 1.0 | 2.0 | 0.00 | 0.00 | 0.00 | 62 | |
| 20260906050204 | 86 | 331 | 1.0 | 2.0 | 0.00 | 0.00 | 0.00 | 62 | |
| 20260906045702 | 86 | 330 | 2.0 | 2.0 | 0.00 | 0.00 | 0.00 | 62 | |
| 20260906045157 | 86 | 334 | 2.0 | 2.0 | 0.00 | 0.00 | 0.00 | 62 | |
| 20260906044653 | 86 | 324 | 1.0 | 2.0 | 0.00 | 0.00 | 0.00 | 63 | |
| 20260906044148 | 86 | 326 | 1.0 | 2.0 | 0.00 | 0.00 | 0.00 | 63 | |
| 20260906043644 | 85 | 326 | 1.0 | 2.0 | 0.00 | 0.00 | 0.00 | 63 | |
| 20260906043140 | 85 | 324 | 1.0 | 1.0 | 0.00 | 0.00 | 0.00 | 64 | |
| 20260906042639 | 85 | 323 | 0.0 | 0.0 | 0.00 | 0.00 | 0.00 | 65 | |
| 20260906042133 | 85 | 324 | 0.0 | 1.0 | 0.00 | 0.00 | 0.00 | 64 | |
| 20260906041629 | 86 | 326 | 1.0 | 1.0 | 0.00 | 0.00 | 0.00 | 64 | |
| 20260906041124 | 86 | 324 | 1.0 | 2.0 | 0.00 | 0.00 | 0.00 | 64 | |
| 20260906040620 | 86 | 325 | 0.0 | 1.0 | 0.00 | 0.00 | 0.00 | 63 | |
| 20260906040115 | 86 | 329 | 1.0 | 1.0 | 0.00 | 0.00 | 0.00 | 63 | |
| 20260906035610 | 86 | 328 | 1.0 | 1.0 | 0.00 | 0.00 | 0.00 | 63 | |
| 20260906035106 | 86 | 324 | 1.0 | 2.0 | 0.00 | 0.00 | 0.00 | 63 | |
| 20260906034606 | 85 | 332 | 1.0 | 2.0 | 0.00 | 0.00 | 0.00 | 64 | |
| 20260906034101 | 85 | 321 | 0.0 | 0.0 | 0.00 | 0.00 | 0.00 | 65 | |
| 20260906033556 | 86 | 326 | 0.0 | 0.0 | 0.00 | 0.00 | 0.00 | 65 | |
| 20260906033051 | 86 | 322 | 0.0 | 0.0 | 0.00 | 0.00 | 0.00 | 65 | |
| 20260906032548 | 86 | 321 | 0.0 | 0.0 | 0.00 | 0.00 | 0.00 | 65 | |
| 20260906032048 | 85 | 322 | 0.0 | 1.0 | 0.00 | 0.00 | 0.00 | 65 | |
| 20260906031543 | 85 | 321 | 0.0 | 1.0 | 0.00 | 0.00 | 0.00 | 66 | |
| 20260906031039 | 85 | 322 | 0.0 | 0.0 | 0.00 | 0.00 | 0.00 | 67 | |
| 20260906030538 | 85 | 321 | 0.0 | 0.0 | 0.00 | 0.00 | 0.00 | 67 | |
| 20260906030037 | 85 | 321 | 0.0 | 0.0 | 0.00 | 0.00 | 0.00 | 66 | |
| 20260906025532 | 85 | 322 | 0.0 | 0.0 | 0.00 | 0.00 | 0.00 | 66 | |
| 20260906025030 | 85 | 322 | 0.0 | 0.0 | 0.00 | 0.00 | 0.00 | 66 | |
| 20260906024526 | 85 | 322 | 0.0 | 0.0 | 0.00 | 0.00 | 0.00 | 66 | |
| 20260906024026 | 86 | 322 | 0.0 | 0.0 | 0.00 | 0.00 | 0.00 | 65 | |
| 20260906023522 | 86 | 321 | 0.0 | 0.0 | 0.00 | 0.00 | 0.00 | 64 | |
| 20260906023017 | 87 | 320 | 0.0 | 0.0 | 0.00 | 0.00 | 0.00 | 63 | |
| 20260906022512 | 88 | 322 | 0.0 | 1.0 | 0.00 | 0.00 | 0.00 | 62 | |
| 20260906022007 | 88 | 326 | 1.0 | 1.0 | 0.00 | 0.00 | 0.00 | 61 | |
| 20260906021502 | 87 | 324 | 0.0 | 0.0 | 0.00 | 0.00 | 0.00 | 62 | |
| 20260906020957 | 87 | 323 | 0.0 | 0.0 | 0.00 | 0.00 | 0.00 | 63 | |
| 20260906020451 | 87 | 322 | 0.0 | 0.0 | 0.00 | 0.00 | 0.00 | 63 | |
| 20260906015950 | 87 | 324 | 0.0 | 0.0 | 0.00 | 0.00 | 0.00 | 64 | |
| 20260906015450 | 87 | 321 | 0.0 | 0.0 | 0.00 | 0.00 | 0.00 | 63 | |
| 20260906014949 | 88 | 321 | 0.0 | 0.0 | 0.00 | 0.00 | 0.00 | 61 | |
| 20260906014449 | 88 | 323 | 0.0 | 0.0 | 0.00 | 0.00 | 0.00 | 60 | |
| 20260906013945 | 89 | 323 | 0.0 | 0.0 | 0.00 | 0.00 | 0.00 | 59 | |
| 20260906013441 | 89 | 321 | 0.0 | 1.0 | 0.00 | 0.00 | 0.00 | 58 | |
| 20260906012936 | 89 | 324 | 1.0 | 1.0 | 0.00 | 0.00 | 0.00 | 57 | |
| 20260906012431 | 89 | 328 | 1.0 | 1.0 | 0.00 | 0.00 | 0.00 | 58 | |
| 20260906011930 | 89 | 319 | 0.0 | 1.0 | 0.00 | 0.00 | 0.00 | 59 | |
| 20260906011426 | 88 | 315 | 1.0 | 1.0 | 0.00 | 0.00 | 0.00 | 58 | |
| 20260906010921 | 87 | 322 | 0.0 | 0.0 | 0.00 | 0.00 | 0.00 | 59 | |
| 20260906010417 | 88 | 319 | 0.0 | 0.0 | 0.00 | 0.00 | 0.00 | 60 | |
| 20260906005913 | 88 | 322 | 0.0 | 0.0 | 0.00 | 0.00 | 0.00 | 59 | |
| 20260906005412 | 88 | 317 | 0.0 | 0.0 | 0.00 | 0.00 | 0.00 | 58 | |
| 20260906004910 | 89 | 322 | 0.0 | 0.0 | 0.00 | 0.00 | 0.00 | 56 | |
| 20260906004405 | 89 | 322 | 0.0 | 0.0 | 0.00 | 0.00 | 0.00 | 54 | |
| 20260906003901 | 90 | 322 | 0.0 | 0.0 | 0.00 | 0.00 | 0.00 | 53 | |
| 20260906003356 | 90 | 322 | 0.0 | 0.0 | 0.00 | 0.00 | 0.00 | 52 | |
| 20260906002851 | 91 | 322 | 0.0 | 0.0 | 0.00 | 0.00 | 0.00 | 53 | |
| 20260906002350 | 91 | 322 | 0.0 | 0.0 | 0.00 | 0.00 | 0.00 | 51 | |
| 20260906001846 | 92 | 322 | 0.0 | 0.0 | 0.00 | 0.00 | 0.00 | 50 | |
| 20260906001342 | 92 | 322 | 0.0 | 0.0 | 0.00 | 0.00 | 0.00 | 49 | |
| 20260906000837 | 93 | 322 | 0.0 | 0.0 | 0.00 | 0.00 | 0.00 | 49 | |
| 20260906000337 | 94 | 322 | 0.0 | 0.0 | 0.00 | 0.00 | 0.00 | 47 | |
| 20260905235837 | 94 | 322 | 0.0 | 0.0 | 0.00 | 0.00 | 0.00 | 47 | |
| 20260905235331 | 94 | 322 | 0.0 | 0.0 | 0.00 | 0.00 | 0.00 | 46 | |
| 20260905234827 | 95 | 322 | 0.0 | 0.0 | 0.00 | 0.00 | 0.00 | 46 | |
| 20260905234322 | 95 | 321 | 0.0 | 0.0 | 0.00 | 0.00 | 0.00 | 45 | |
| 20260905233817 | 95 | 321 | 0.0 | 0.0 | 0.00 | 0.00 | 0.00 | 44 | |
| 20260905233312 | 95 | 319 | 0.0 | 0.0 | 0.00 | 0.00 | 0.00 | 44 | |
| 20260905232811 | 95 | 319 | 0.0 | 0.0 | 0.00 | 0.00 | 0.00 | 44 | |
| 20260905232307 | 95 | 323 | 0.0 | 0.0 | 0.00 | 0.00 | 0.00 | 44 | |
| 20260905231803 | 96 | 321 | 0.0 | 1.0 | 0.00 | 0.00 | 0.00 | 44 | |
| 20260905231258 | 96 | 315 | 0.0 | 0.0 | 0.00 | 0.00 | 0.00 | 42 | |
| 20260905230754 | 96 | 322 | 1.0 | 2.0 | 0.00 | 0.00 | 0.00 | 42 | |
| 20260905230252 | 95 | 324 | 0.0 | 0.0 | 0.00 | 0.00 | 0.00 | 43 | |
| 20260905225751 | 95 | 323 | 0.0 | 0.0 | 0.00 | 0.00 | 0.00 | 43 | |
| 20260905225247 | 96 | 321 | 0.0 | 0.0 | 0.00 | 0.00 | 0.00 | 43 | |
| 20260905224746 | 96 | 322 | 0.0 | 0.0 | 0.00 | 0.00 | 0.00 | 41 | |
| 20260905224242 | 96 | 315 | 0.0 | 0.0 | 0.00 | 0.00 | 0.00 | 40 | |
| 20260905223737 | 96 | 324 | 0.0 | 1.0 | 0.00 | 0.00 | 0.00 | 41 | |
| 20260905223234 | 97 | 324 | 1.0 | 3.0 | 0.00 | 0.00 | 0.00 | 41 | |
| 20260905222730 | 97 | 305 | 0.0 | 1.0 | 0.00 | 0.00 | 0.00 | 42 | |
| 20260905222228 | 97 | 322 | 1.0 | 1.0 | 0.00 | 0.00 | 0.00 | 41 | |
| 20260905221725 | 97 | 301 | 0.0 | 0.0 | 0.00 | 0.00 | 0.00 | 41 | |
| 20260905221221 | 97 | 260 | 1.0 | 3.0 | 0.00 | 0.00 | 0.00 | 41 | |
| 20260905220717 | 97 | 321 | 0.0 | 1.0 | 0.00 | 0.00 | 0.00 | 41 | |
| 20260905220213 | 96 | 320 | 0.0 | 0.0 | 0.00 | 0.00 | 0.00 | 42 | |
| 20260905215712 | 96 | 323 | 0.0 | 2.0 | 0.00 | 0.00 | 0.00 | 41 | |
| 20260905215208 | 97 | 344 | 1.0 | 2.0 | 0.00 | 0.00 | 0.00 | 42 | |
| 20260905214704 | 97 | 342 | 1.0 | 2.0 | 0.00 | 0.00 | 0.00 | 41 | |
| 20260905214159 | 97 | 325 | 1.0 | 2.0 | 0.00 | 0.00 | 0.00 | 42 | |
| 20260905213654 | 97 | 331 | 2.0 | 2.0 | 0.00 | 0.00 | 0.00 | 42 | |
| 20260905213150 | 97 | 346 | 1.0 | 2.0 | 0.00 | 0.00 | 0.00 | 41 | |
| 20260905212645 | 97 | 318 | 1.0 | 2.0 | 0.00 | 0.00 | 0.00 | 41 | |
| 20260905212144 | 97 | 239 | 2.0 | 2.0 | 0.00 | 0.00 | 0.00 | 41 | |
| 20260905211639 | 97 | 290 | 0.0 | 1.0 | 0.00 | 0.00 | 0.00 | 41 | |
| 20260905211134 | 97 | 327 | 0.0 | 3.0 | 0.00 | 0.00 | 0.00 | 41 | |
| 20260905210631 | 96 | 319 | 1.0 | 1.0 | 0.00 | 0.00 | 0.00 | 42 | |
| 20260905210126 | 96 | 319 | 1.0 | 1.0 | 0.00 | 0.00 | 0.00 | 42 | |
| 20260905205624 | 96 | 292 | 1.0 | 2.0 | 0.00 | 0.00 | 0.00 | 41 | |
| 20260905205124 | 96 | 318 | 0.0 | 1.0 | 0.00 | 0.00 | 0.00 | 42 | |
| 20260905204624 | 95 | 318 | 1.0 | 3.0 | 0.00 | 0.00 | 0.00 | 44 | |
| 20260905204120 | 95 | 323 | 0.0 | 1.0 | 0.00 | 0.00 | 0.00 | 43 | |
| 20260905203619 | 95 | 313 | 0.0 | 1.0 | 0.00 | 0.00 | 0.00 | 44 | |
| 20260905203115 | 95 | 326 | 1.0 | 2.0 | 0.00 | 0.00 | 0.00 | 42 | |
| 20260905202610 | 95 | 320 | 0.0 | 0.0 | 0.00 | 0.00 | 0.00 | 44 | |
| 20260905202105 | 95 | 321 | 0.0 | 0.0 | 0.00 | 0.00 | 0.00 | 43 | |
| 20260905201601 | 95 | 335 | 1.0 | 2.0 | 0.00 | 0.00 | 0.00 | 45 | |
| 20260905201100 | 96 | 323 | 0.0 | 0.0 | 0.00 | 0.00 | 0.00 | 42 | |
| 20260905200556 | 97 | 323 | 0.0 | 1.0 | 0.00 | 0.00 | 0.00 | 41 | |
| 20260905200056 | 97 | 358 | 4.0 | 5.0 | 0.00 | 0.00 | 0.00 | 41 | |
| 20260905195550 | 97 | 324 | 1.0 | 3.0 | 0.00 | 0.00 | 0.00 | 41 | |
| 20260905195046 | 97 | 335 | 2.0 | 2.0 | 0.00 | 0.00 | 0.00 | 42 | |
| 20260905194545 | 97 | 345 | 1.0 | 2.0 | 0.00 | 0.00 | 0.00 | 43 | |
| 20260905194044 | 96 | 331 | 3.0 | 3.0 | 0.00 | 0.00 | 0.00 | 44 | |
| 20260905193539 | 96 | 350 | 1.0 | 2.0 | 0.00 | 0.00 | 0.00 | 43 | |
| 20260905193035 | 96 | 334 | 1.0 | 2.0 | 0.00 | 0.00 | 0.00 | 44 | |
| 20260905192530 | 96 | 283 | 0.0 | 1.0 | 0.00 | 0.00 | 0.00 | 43 | |
| 20260905192026 | 96 | 318 | 0.0 | 1.0 | 0.00 | 0.00 | 0.00 | 45 | |
| 20260905191525 | 96 | 328 | 1.0 | 2.0 | 0.00 | 0.00 | 0.00 | 44 | |
| 20260905191024 | 96 | 326 | 0.0 | 2.0 | 0.00 | 0.00 | 0.00 | 44 | |
| 20260905190522 | 97 | 319 | 0.0 | 3.0 | 0.00 | 0.00 | 0.00 | 44 | |
| 20260905190022 | 96 | 322 | 0.0 | 2.0 | 0.00 | 0.00 | 0.00 | 44 | |
| 20260905185516 | 96 | 333 | 2.0 | 3.0 | 0.00 | 0.00 | 0.00 | 44 | |
| 20260905185015 | 96 | 324 | 3.0 | 3.0 | 0.00 | 0.00 | 0.00 | 45 | |
| 20260905184510 | 95 | 316 | 1.0 | 1.0 | 0.00 | 0.00 | 0.00 | 47 | |
| 20260905184009 | 96 | 300 | 1.0 | 1.0 | 0.00 | 0.00 | 0.00 | 46 | |
| 20260905183508 | 95 | 317 | 0.0 | 0.0 | 0.00 | 0.00 | 0.00 | 47 | |
| 20260905183003 | 95 | 323 | 0.0 | 1.0 | 0.00 | 0.00 | 0.00 | 46 | |
| 20260905182503 | 94 | 311 | 0.0 | 1.0 | 0.00 | 0.00 | 0.00 | 50 | |
| 20260905181958 | 95 | 305 | 0.0 | 1.0 | 0.00 | 0.00 | 0.00 | 47 | |
| 20260905181453 | 96 | 322 | 0.0 | 1.0 | 0.00 | 0.00 | 0.00 | 45 | |
| 20260905180952 | 95 | 300 | 2.0 | 2.0 | 0.00 | 0.00 | 0.00 | 46 | |
| 20260905180446 | 95 | 324 | 1.0 | 1.0 | 0.00 | 0.00 | 0.00 | 46 |